Time;durP1;ratioP1;P1;durP2;ratioP2;P2;SDS_P1;SDS_P2;PMS_P1;PMS_P2;Temp;Humidity;BMP_temperature;BMP_pressure;BME280_temperature;BME280_humidity;BME280_pressure;Samples;Min_cycle;Max_cycle;Signal;HPM_P1;HPM_P2
2021/12/01 00:02:04;;;;;;;2.45;2.25;;;10.20;69.20;;;;;;5059801;28;20083;-82
2021/12/01 00:04:29;;;;;;;2.50;2.30;;;10.10;69.20;;;;;;5060296;28;20033;-82
2021/12/01 00:06:55;;;;;;;2.60;2.40;;;10.10;69.20;;;;;;5043230;28;20079;-83
2021/12/01 00:09:21;;;;;;;2.50;2.30;;;10.10;69.20;;;;;;5050861;28;20124;-81
2021/12/01 00:11:47;;;;;;;2.30;2.10;;;10.10;69.20;;;;;;5041708;28;20074;-81
2021/12/01 00:14:12;;;;;;;2.85;2.38;;;10.10;69.20;;;;;;5064198;28;20020;-82
2021/12/01 00:16:38;;;;;;;3.05;2.55;;;10.10;69.80;;;;;;5061235;28;20037;-81
2021/12/01 00:19:04;;;;;;;2.50;2.30;;;10.10;69.20;;;;;;5042819;28;20049;-82
2021/12/01 00:21:29;;;;;;;3.10;2.60;;;10.10;69.20;;;;;;5045200;28;20364;-81
2021/12/01 00:23:55;;;;;;;2.38;2.17;;;10.10;69.20;;;;;;5060594;28;20032;-81
2021/12/01 00:26:21;;;;;;;3.13;2.40;;;10.10;69.20;;;;;;5050526;28;20032;-82
2021/12/01 00:28:47;;;;;;;2.78;2.30;;;10.00;69.10;;;;;;5045110;28;20386;-80
2021/12/01 00:31:13;;;;;;;2.45;2.22;;;10.10;69.20;;;;;;5062428;28;20032;-81
2021/12/01 00:33:40;;;;;;;2.50;2.30;;;10.10;69.20;;;;;;5066425;28;20033;-81
2021/12/01 00:36:08;;;;;;;2.40;2.20;;;10.10;69.70;;;;;;5071719;28;20078;-81
2021/12/01 00:38:35;;;;;;;2.30;2.10;;;10.10;69.20;;;;;;5062638;28;20414;-81
2021/12/01 00:41:04;;;;;;;2.30;2.13;;;10.10;69.20;;;;;;5063933;28;20207;-81
2021/12/01 00:43:30;;;;;;;2.58;2.33;;;10.10;69.20;;;;;;5061465;28;20378;-82
2021/12/01 00:45:57;;;;;;;2.60;2.40;;;10.10;69.20;;;;;;5042724;28;20033;-81
2021/12/01 00:48:24;;;;;;;2.95;2.40;;;10.10;69.20;;;;;;5060567;28;20120;-78
2021/12/01 00:50:50;;;;;;;2.67;2.47;;;10.00;69.10;;;;;;5059949;28;20070;-79
2021/12/01 00:53:16;;;;;;;2.92;2.40;;;10.10;69.10;;;;;;5058419;28;20374;-80
2021/12/01 00:55:43;;;;;;;2.33;2.13;;;10.10;69.10;;;;;;5060455;28;20118;-81
2021/12/01 00:58:12;;;;;;;2.60;2.38;;;10.10;69.10;;;;;;5051057;28;20091;-82
2021/12/01 01:00:38;;;;;;;2.40;2.20;;;10.10;69.10;;;;;;5042355;28;20025;-81
2021/12/01 01:03:04;;;;;;;2.60;2.40;;;10.10;69.10;;;;;;5058739;28;20078;-81
2021/12/01 01:05:30;;;;;;;2.28;2.08;;;10.10;69.10;;;;;;5056755;28;20028;-81
2021/12/01 01:07:56;;;;;;;3.00;2.60;;;10.10;69.10;;;;;;5059602;28;20431;-81
2021/12/01 01:18:33;;;;;;;2.58;2.20;;;10.10;69.10;;;;;;5059997;28;20067;-81
2021/12/01 01:20:59;;;;;;;2.22;2.03;;;10.10;69.00;;;;;;5061483;28;20036;-82
2021/12/01 01:23:26;;;;;;;2.30;2.10;;;10.10;69.00;;;;;;5039981;28;20116;-80
2021/12/01 01:25:53;;;;;;;2.50;2.28;;;10.00;69.00;;;;;;5049863;28;20115;-81
2021/12/01 01:28:19;;;;;;;3.00;2.40;;;10.10;69.00;;;;;;5059913;28;20068;-81
2021/12/01 01:30:44;;;;;;;2.50;2.30;;;10.10;69.00;;;;;;5041749;28;20060;-81
2021/12/01 01:33:10;;;;;;;2.50;2.30;;;10.10;69.00;;;;;;5061620;28;20033;-82
2021/12/01 01:35:36;;;;;;;2.58;2.38;;;10.00;68.90;;;;;;5060699;28;20371;-81
2021/12/01 01:38:02;;;;;;;2.50;2.30;;;10.00;68.90;;;;;;5061290;28;20124;-82
2021/12/01 01:40:27;;;;;;;2.50;2.30;;;10.00;68.90;;;;;;5058535;28;20029;-81
2021/12/01 01:42:53;;;;;;;2.45;2.25;;;10.00;68.90;;;;;;5062890;28;20024;-82
2021/12/01 01:45:19;;;;;;;2.60;2.40;;;10.00;68.90;;;;;;5062087;28;20672;-81
2021/12/01 01:48:29;;;;;;;2.38;2.17;;;10.00;68.90;;;;;;5067962;28;20454;-82
2021/12/01 01:50:44;;;;;;;3.08;2.50;;;10.00;68.90;;;;;;5058564;28;20399;-81
2021/12/01 01:53:13;;;;;;;2.65;2.45;;;10.00;68.90;;;;;;5078211;28;20025;-81
2021/12/01 01:55:41;;;;;;;2.70;2.45;;;10.00;68.90;;;;;;5048160;28;20021;-83
2021/12/01 01:58:07;;;;;;;2.40;2.20;;;10.00;68.90;;;;;;5061452;28;20041;-81
2021/12/01 02:00:42;;;;;;;2.42;2.22;;;10.00;68.90;;;;;;5064615;28;20029;-82
2021/12/01 02:03:14;;;;;;;2.65;2.45;;;10.00;68.90;;;;;;5060528;28;20033;-81
2021/12/01 02:05:41;;;;;;;2.60;2.40;;;10.00;68.80;;;;;;5042630;28;20025;-81
2021/12/01 02:08:16;;;;;;;2.38;2.17;;;10.00;68.80;;;;;;5046145;28;20383;-82
2021/12/01 02:10:48;;;;;;;2.50;2.30;;;10.00;68.90;;;;;;5044795;28;20024;-83
2021/12/01 02:13:19;;;;;;;2.40;2.20;;;10.00;68.80;;;;;;5063264;28;20025;-81
2021/12/01 02:15:47;;;;;;;2.35;2.15;;;10.00;68.90;;;;;;5044055;28;20021;-82
2021/12/01 02:18:13;;;;;;;2.33;2.13;;;10.00;68.90;;;;;;5044813;28;20094;-81
2021/12/01 02:20:39;;;;;;;2.55;2.35;;;10.00;68.80;;;;;;5064938;28;20021;-81
2021/12/01 02:23:05;;;;;;;2.38;2.17;;;10.00;68.80;;;;;;5044563;28;20025;-81
2021/12/01 02:25:31;;;;;;;2.30;2.10;;;10.00;68.80;;;;;;5063212;28;20378;-81
2021/12/01 02:27:57;;;;;;;2.60;2.40;;;10.00;68.80;;;;;;5066620;28;20028;-81
2021/12/01 02:30:23;;;;;;;2.58;2.38;;;10.00;68.80;;;;;;5064330;28;20083;-82
2021/12/01 02:32:50;;;;;;;2.50;2.30;;;10.00;68.80;;;;;;5045985;28;20052;-83
2021/12/01 02:35:17;;;;;;;2.60;2.40;;;10.00;68.80;;;;;;5045434;28;20497;-82
2021/12/01 02:37:42;;;;;;;2.70;2.50;;;10.00;68.80;;;;;;5052833;28;20040;-84
2021/12/01 02:40:09;;;;;;;3.25;2.40;;;10.00;68.70;;;;;;5061902;28;20025;-83
2021/12/01 02:42:35;;;;;;;2.50;2.30;;;10.00;68.80;;;;;;5046198;28;20048;-81
2021/12/01 02:45:01;;;;;;;3.08;2.60;;;10.00;68.70;;;;;;5063181;28;20072;-82
2021/12/01 02:47:27;;;;;;;2.42;2.20;;;10.00;68.70;;;;;;5064417;28;20034;-82
2021/12/01 02:49:54;;;;;;;2.30;2.10;;;10.00;68.80;;;;;;5053294;28;20102;-82
2021/12/01 02:52:23;;;;;;;2.92;2.45;;;10.00;68.70;;;;;;5062254;28;20025;-81
2021/12/01 02:54:50;;;;;;;2.40;2.20;;;10.00;68.70;;;;;;5044898;28;20021;-83
2021/12/01 02:57:16;;;;;;;2.72;2.50;;;10.00;68.70;;;;;;5062218;28;20025;-83
2021/12/01 02:59:41;;;;;;;2.53;2.33;;;10.00;68.70;;;;;;5064519;28;20028;-81
2021/12/01 03:02:08;;;;;;;3.10;2.45;;;10.00;68.60;;;;;;5044489;28;20035;-82
2021/12/01 03:04:36;;;;;;;2.72;2.47;;;10.00;68.70;;;;;;5061941;28;20036;-81
2021/12/01 03:07:04;;;;;;;2.88;2.38;;;10.00;68.70;;;;;;5043534;28;20059;-81
2021/12/01 03:09:30;;;;;;;3.28;2.40;;;10.00;68.70;;;;;;5069881;28;20031;-82
2021/12/01 03:11:56;;;;;;;2.50;2.30;;;10.00;68.70;;;;;;5067112;28;20123;-81
2021/12/01 03:14:22;;;;;;;2.50;2.30;;;10.00;68.70;;;;;;5065831;28;20078;-81
2021/12/01 03:16:50;;;;;;;2.83;2.50;;;10.00;68.60;;;;;;5046704;28;20029;-80
2021/12/01 03:19:16;;;;;;;2.60;2.40;;;10.00;68.90;;;;;;5053316;28;20048;-84
2021/12/01 03:21:43;;;;;;;2.60;2.40;;;10.00;68.60;;;;;;5063334;28;20020;-81
2021/12/01 03:24:10;;;;;;;3.33;2.63;;;10.00;68.60;;;;;;5063037;28;20024;-81
2021/12/01 03:26:37;;;;;;;2.60;2.35;;;10.00;68.60;;;;;;5047600;28;20058;-81
2021/12/01 03:29:05;;;;;;;2.85;2.42;;;10.00;68.60;;;;;;5048737;28;20028;-81
2021/12/01 03:31:31;;;;;;;2.88;2.40;;;10.00;68.60;;;;;;5052632;28;20032;-81
2021/12/01 03:33:58;;;;;;;2.50;2.30;;;10.00;68.60;;;;;;5065327;28;20074;-82
2021/12/01 03:36:23;;;;;;;3.00;2.70;;;10.00;68.60;;;;;;5062823;28;20060;-83
2021/12/01 03:38:49;;;;;;;2.80;2.50;;;10.00;68.50;;;;;;5052188;28;20392;-81
2021/12/01 03:41:15;;;;;;;2.72;2.53;;;10.00;68.50;;;;;;5045509;28;20050;-81
2021/12/01 03:43:41;;;;;;;2.83;2.40;;;10.00;68.60;;;;;;5061713;28;20021;-81
2021/12/01 03:46:07;;;;;;;2.38;2.17;;;9.90;68.50;;;;;;5060822;28;20059;-81
2021/12/01 03:48:33;;;;;;;3.72;2.50;;;10.00;68.50;;;;;;5060954;28;20032;-81
2021/12/01 03:50:59;;;;;;;2.70;2.50;;;9.90;68.50;;;;;;5065728;28;20025;-80
2021/12/01 03:53:26;;;;;;;2.50;2.30;;;9.90;68.50;;;;;;5063345;28;20149;-82
2021/12/01 03:55:52;;;;;;;3.22;2.38;;;9.90;68.50;;;;;;5058679;28;20029;-80
2021/12/01 03:58:18;;;;;;;2.42;2.22;;;9.90;68.50;;;;;;5057174;28;20486;-81
2021/12/01 04:00:44;;;;;;;2.60;2.40;;;9.90;68.50;;;;;;5062948;28;20056;-80
2021/12/01 04:03:10;;;;;;;2.50;2.25;;;9.90;68.50;;;;;;5062680;28;20061;-81
2021/12/01 04:05:36;;;;;;;2.88;2.42;;;9.90;68.50;;;;;;5043771;28;20029;-81
2021/12/01 04:08:03;;;;;;;2.60;2.40;;;9.90;68.50;;;;;;5043279;28;20111;-82
2021/12/01 04:10:29;;;;;;;2.92;2.60;;;9.90;68.50;;;;;;5061627;28;20037;-81
2021/12/01 04:12:55;;;;;;;2.78;2.50;;;9.90;68.50;;;;;;5060905;28;20103;-81
2021/12/01 04:15:21;;;;;;;2.50;2.30;;;9.90;68.50;;;;;;5041964;28;20111;-81
2021/12/01 04:17:47;;;;;;;2.60;2.40;;;9.90;68.50;;;;;;5061217;28;20048;-82
2021/12/01 04:20:16;;;;;;;2.30;2.10;;;9.90;68.50;;;;;;5060355;28;20036;-82
2021/12/01 04:22:46;;;;;;;2.60;2.40;;;9.90;68.50;;;;;;5061659;28;20374;-81
2021/12/01 04:25:12;;;;;;;2.85;2.50;;;9.90;68.50;;;;;;5045687;28;20036;-81
2021/12/01 04:27:38;;;;;;;2.63;2.30;;;9.90;68.40;;;;;;5050865;28;20120;-81
2021/12/01 04:30:08;;;;;;;2.40;2.20;;;9.90;68.50;;;;;;5061806;28;20068;-82
2021/12/01 04:32:34;;;;;;;2.83;2.50;;;9.90;68.40;;;;;;5059245;28;20025;-82
2021/12/01 04:35:00;;;;;;;2.90;2.40;;;9.90;68.50;;;;;;5060679;28;20025;-82
2021/12/01 04:37:26;;;;;;;2.50;2.30;;;9.90;68.50;;;;;;5060679;28;20356;-81
2021/12/01 04:39:53;;;;;;;2.50;2.30;;;9.90;68.50;;;;;;5059921;28;20052;-82
2021/12/01 04:42:19;;;;;;;2.70;2.22;;;9.90;68.50;;;;;;5060617;28;20029;-81
2021/12/01 04:44:46;;;;;;;2.42;2.15;;;9.90;68.40;;;;;;5060627;28;20067;-82
2021/12/01 04:47:17;;;;;;;2.78;2.40;;;9.90;68.40;;;;;;5064036;28;20477;-82
2021/12/01 04:49:43;;;;;;;2.35;2.15;;;9.90;68.40;;;;;;5061780;28;20036;-81
2021/12/01 04:52:10;;;;;;;3.35;2.40;;;9.90;68.40;;;;;;5061913;28;20024;-81
2021/12/01 04:54:36;;;;;;;2.53;2.33;;;9.90;68.40;;;;;;5045968;28;20111;-81
2021/12/01 04:57:04;;;;;;;2.47;2.28;;;9.90;68.40;;;;;;5039814;28;20120;-82
2021/12/01 04:59:32;;;;;;;2.45;2.25;;;9.80;68.40;;;;;;5056632;28;20087;-81
2021/12/01 05:01:57;;;;;;;2.45;2.20;;;9.90;68.40;;;;;;5041811;28;20116;-82
2021/12/01 05:04:23;;;;;;;3.08;2.40;;;9.80;68.30;;;;;;5062192;28;20494;-81
2021/12/01 05:06:50;;;;;;;2.47;2.20;;;9.80;68.40;;;;;;5062175;28;20058;-81
2021/12/01 05:09:16;;;;;;;2.35;2.15;;;9.80;68.40;;;;;;5057963;28;20032;-81
2021/12/01 05:11:42;;;;;;;2.95;2.38;;;9.90;68.40;;;;;;5057752;28;20029;-81
2021/12/01 05:14:08;;;;;;;2.50;2.30;;;9.80;68.40;;;;;;5057902;28;20036;-82
2021/12/01 05:16:36;;;;;;;2.50;2.30;;;9.80;68.30;;;;;;5044214;28;20056;-81
2021/12/01 05:19:05;;;;;;;2.40;2.20;;;9.80;68.40;;;;;;5067649;28;20123;-82
2021/12/01 05:21:31;;;;;;;2.65;2.45;;;9.80;68.30;;;;;;5066508;28;20021;-80
2021/12/01 05:23:57;;;;;;;2.45;2.03;;;9.80;68.40;;;;;;5065828;28;20033;-81
2021/12/01 05:26:23;;;;;;;2.55;2.28;;;9.80;68.40;;;;;;5068006;28;20025;-82
2021/12/01 05:28:48;;;;;;;2.90;2.33;;;9.80;68.40;;;;;;5079524;28;20028;-82
2021/12/01 05:31:14;;;;;;;2.45;2.25;;;9.80;68.40;;;;;;5084429;28;20100;-82
2021/12/01 05:33:40;;;;;;;2.60;2.40;;;9.80;68.30;;;;;;5053323;28;20028;-81
2021/12/01 05:36:08;;;;;;;2.63;2.42;;;9.80;68.30;;;;;;5066936;28;20029;-78
2021/12/01 05:38:34;;;;;;;3.10;2.45;;;9.80;68.30;;;;;;5046040;28;20047;-76
2021/12/01 05:41:02;;;;;;;2.30;2.10;;;9.80;68.30;;;;;;5057088;28;20200;-76
2021/12/01 05:43:28;;;;;;;3.08;2.50;;;9.80;68.40;;;;;;5057101;28;20036;-75
2021/12/01 05:45:53;;;;;;;2.45;2.25;;;9.80;68.40;;;;;;5066954;28;20502;-75
2021/12/01 05:48:19;;;;;;;2.80;2.30;;;9.80;68.30;;;;;;5066784;28;20028;-75
2021/12/01 05:50:45;;;;;;;2.70;2.30;;;9.80;68.30;;;;;;5087911;28;20031;-76
2021/12/01 05:53:11;;;;;;;2.40;2.20;;;9.80;68.30;;;;;;5069615;28;20024;-74
2021/12/01 05:55:37;;;;;;;2.47;2.28;;;9.80;68.30;;;;;;5044195;28;20178;-78
2021/12/01 05:58:04;;;;;;;2.45;2.25;;;9.80;68.30;;;;;;5053568;28;20094;-78
2021/12/01 06:00:30;;;;;;;2.95;2.60;;;9.80;68.30;;;;;;5076299;28;20028;-77
2021/12/01 06:02:56;;;;;;;2.47;2.28;;;9.80;68.30;;;;;;5076555;28;20024;-78
2021/12/01 06:05:25;;;;;;;2.70;2.40;;;9.80;68.30;;;;;;5072176;28;20103;-74
2021/12/01 06:07:51;;;;;;;2.90;2.50;;;9.80;68.30;;;;;;5065373;28;20032;-74
2021/12/01 06:10:17;;;;;;;2.50;2.30;;;9.80;68.30;;;;;;5056065;28;20360;-74
2021/12/01 06:12:45;;;;;;;2.38;2.17;;;9.80;68.30;;;;;;5043625;28;20032;-76
2021/12/01 06:15:14;;;;;;;3.25;2.50;;;9.80;68.30;;;;;;5055896;28;20025;-75
2021/12/01 06:17:41;;;;;;;2.42;2.22;;;9.80;68.30;;;;;;5049554;28;20127;-74
2021/12/01 06:20:09;;;;;;;2.40;2.20;;;9.80;68.30;;;;;;5057606;28;20033;-74
2021/12/01 06:22:35;;;;;;;2.53;2.30;;;9.80;68.30;;;;;;5054504;28;20111;-73
2021/12/01 06:25:00;;;;;;;2.33;2.13;;;9.80;68.30;;;;;;5056556;28;20028;-73
2021/12/01 06:27:27;;;;;;;2.28;2.08;;;9.80;68.20;;;;;;5057377;28;20032;-74
2021/12/01 06:29:54;;;;;;;2.50;2.30;;;9.80;68.20;;;;;;5057051;28;20127;-74
2021/12/01 06:32:20;;;;;;;2.60;2.40;;;9.80;68.20;;;;;;5076090;28;20114;-74
2021/12/01 06:35:03;;;;;;;2.63;2.40;;;9.80;68.20;;;;;;5074351;28;20031;-74
2021/12/01 06:37:29;;;;;;;2.28;2.08;;;9.80;68.10;;;;;;5064442;28;20032;-74
2021/12/01 06:39:55;;;;;;;2.40;2.20;;;9.80;68.20;;;;;;5069953;28;20035;-74
2021/12/01 06:42:21;;;;;;;2.50;2.30;;;9.80;68.20;;;;;;5063516;28;20033;-74
2021/12/01 06:44:47;;;;;;;3.28;2.50;;;9.90;68.20;;;;;;5066768;28;20531;-75
2021/12/01 06:47:13;;;;;;;3.47;2.50;;;9.80;68.20;;;;;;5059106;28;20030;-71
2021/12/01 06:49:38;;;;;;;2.75;2.38;;;9.80;68.10;;;;;;5045880;28;20025;-72
2021/12/01 06:52:04;;;;;;;2.50;2.30;;;9.90;68.20;;;;;;5053695;28;20060;-71
2021/12/01 06:54:30;;;;;;;2.70;2.45;;;9.80;68.20;;;;;;5049271;28;20032;-71
2021/12/01 06:56:56;;;;;;;2.42;2.20;;;9.90;68.20;;;;;;5066313;28;20025;-72
2021/12/01 06:59:21;;;;;;;2.60;2.40;;;9.80;68.10;;;;;;5058505;28;20049;-74
2021/12/01 07:01:47;;;;;;;2.60;2.40;;;9.80;68.10;;;;;;5065757;28;20493;-72
2021/12/01 07:04:14;;;;;;;3.45;2.60;;;9.90;68.10;;;;;;5064673;28;20041;-73
2021/12/01 07:06:39;;;;;;;2.95;2.28;;;9.90;68.10;;;;;;5045991;28;20032;-71
2021/12/01 07:09:05;;;;;;;2.50;2.30;;;9.90;68.10;;;;;;5065767;28;20029;-71
2021/12/01 07:11:31;;;;;;;2.97;2.53;;;9.90;68.10;;;;;;5046559;28;20454;-69
2021/12/01 07:13:57;;;;;;;3.20;2.60;;;9.90;68.10;;;;;;5071249;28;20037;-69
2021/12/01 07:16:23;;;;;;;2.33;2.13;;;9.90;68.10;;;;;;5068898;28;20119;-68
2021/12/01 07:18:49;;;;;;;2.83;2.30;;;9.90;68.10;;;;;;5068671;28;20076;-69
2021/12/01 07:21:15;;;;;;;2.75;2.28;;;9.90;68.60;;;;;;5073210;28;20043;-68
2021/12/01 07:23:41;;;;;;;2.30;2.10;;;9.90;68.00;;;;;;5056701;28;20028;-69
2021/12/01 07:26:07;;;;;;;2.80;2.40;;;9.90;68.00;;;;;;5052918;28;20028;-69
2021/12/01 07:28:32;;;;;;;2.58;2.38;;;9.90;68.00;;;;;;5067863;28;20466;-70
2021/12/01 07:30:59;;;;;;;2.55;2.33;;;10.00;68.10;;;;;;5063784;28;20387;-69
2021/12/01 07:33:24;;;;;;;2.63;2.30;;;9.90;68.00;;;;;;5063312;28;20021;-70
2021/12/01 07:35:51;;;;;;;2.40;2.20;;;10.00;68.00;;;;;;5049286;28;20356;-68
2021/12/01 07:38:17;;;;;;;2.60;2.35;;;10.00;68.00;;;;;;5044708;28;20040;-68
2021/12/01 07:40:43;;;;;;;2.60;2.40;;;10.10;68.00;;;;;;5064711;28;20107;-68
2021/12/01 07:43:09;;;;;;;2.42;2.22;;;10.10;68.00;;;;;;5046583;28;20421;-68
2021/12/01 07:45:35;;;;;;;3.15;2.40;;;10.20;67.90;;;;;;5069357;28;20481;-68
2021/12/01 07:48:01;;;;;;;2.75;2.42;;;10.20;67.80;;;;;;5074583;28;20101;-67
2021/12/01 07:50:27;;;;;;;2.60;2.40;;;10.20;67.80;;;;;;5056418;28;20032;-67
2021/12/01 07:52:52;;;;;;;2.80;2.47;;;10.20;67.70;;;;;;5056213;28;20073;-68
2021/12/01 07:55:18;;;;;;;3.03;2.50;;;10.20;67.70;;;;;;5068311;28;20095;-68
2021/12/01 07:57:46;;;;;;;2.40;2.20;;;10.20;67.70;;;;;;5059902;28;20037;-67
2021/12/01 08:00:12;;;;;;;2.22;2.03;;;10.20;67.70;;;;;;5056413;28;20067;-70
2021/12/01 08:02:38;;;;;;;2.63;2.40;;;10.20;67.70;;;;;;5092003;28;20020;-68
2021/12/01 08:05:05;;;;;;;2.10;2.00;;;10.20;67.60;;;;;;5070106;28;20569;-68
2021/12/01 08:07:34;;;;;;;2.00;1.90;;;10.30;67.70;;;;;;5044388;28;20033;-69
2021/12/01 08:10:01;;;;;;;3.03;2.60;;;10.30;67.70;;;;;;5076825;28;20024;-70
2021/12/01 08:12:26;;;;;;;2.88;2.30;;;10.30;67.60;;;;;;5084707;28;20035;-74
2021/12/01 08:14:52;;;;;;;2.42;2.22;;;10.30;67.60;;;;;;5055911;28;20024;-74
2021/12/01 08:17:18;;;;;;;2.60;2.28;;;10.30;67.50;;;;;;5072398;28;20024;-75
2021/12/01 08:19:44;;;;;;;2.90;2.38;;;10.30;67.50;;;;;;5074492;28;20033;-74
2021/12/01 08:22:09;;;;;;;2.60;2.40;;;10.30;67.50;;;;;;5055637;28;20550;-75
2021/12/01 08:24:36;;;;;;;2.88;2.20;;;10.30;67.40;;;;;;5074060;28;20028;-74
2021/12/01 08:27:02;;;;;;;2.78;2.47;;;10.30;67.50;;;;;;5068885;28;20029;-76
2021/12/01 08:29:28;;;;;;;2.72;2.30;;;10.30;68.00;;;;;;5073276;28;20442;-76
2021/12/01 08:31:54;;;;;;;2.80;2.50;;;10.30;67.50;;;;;;5072406;28;20055;-76
2021/12/01 08:34:20;;;;;;;2.30;2.10;;;10.30;67.50;;;;;;5073549;28;20024;-77
2021/12/01 08:36:46;;;;;;;2.95;2.30;;;10.30;67.40;;;;;;5073298;28;20112;-76
2021/12/01 08:39:13;;;;;;;2.50;2.30;;;10.30;67.40;;;;;;5055618;28;20127;-76
2021/12/01 08:41:39;;;;;;;2.50;2.30;;;10.30;67.40;;;;;;5073074;28;20028;-76
2021/12/01 08:44:05;;;;;;;2.80;2.40;;;10.30;67.40;;;;;;5073424;28;20024;-76
2021/12/01 08:46:31;;;;;;;2.63;2.40;;;10.30;67.30;;;;;;5055895;28;20029;-76
2021/12/01 08:48:58;;;;;;;2.35;2.15;;;10.30;67.30;;;;;;5072105;28;20028;-77
2021/12/01 08:51:25;;;;;;;2.92;2.30;;;10.30;67.90;;;;;;5072181;28;20028;-76
2021/12/01 08:53:50;;;;;;;2.20;2.10;;;10.30;67.40;;;;;;5055452;28;20024;-76
2021/12/01 08:56:16;;;;;;;2.47;2.20;;;10.30;67.40;;;;;;5071746;28;20454;-75
2021/12/01 08:58:42;;;;;;;2.45;2.25;;;10.30;67.40;;;;;;5073320;28;20039;-76
2021/12/01 09:01:08;;;;;;;2.60;2.40;;;10.20;67.30;;;;;;5073307;28;20040;-76
2021/12/01 09:03:36;;;;;;;2.53;2.33;;;10.20;67.30;;;;;;5073408;28;20036;-76
2021/12/01 09:06:02;;;;;;;2.53;2.20;;;10.20;67.40;;;;;;5072633;28;20040;-81
2021/12/01 09:08:28;;;;;;;2.75;2.35;;;10.20;67.40;;;;;;5064767;28;20029;-75
2021/12/01 09:10:57;;;;;;;3.05;2.40;;;10.20;67.60;;;;;;5036553;28;20116;-73
2021/12/01 09:13:26;;;;;;;2.50;2.30;;;10.20;67.70;;;;;;5072342;28;20398;-74
2021/12/01 09:15:53;;;;;;;2.60;2.40;;;10.30;67.80;;;;;;5055282;28;20439;-73
2021/12/01 09:18:20;;;;;;;2.90;2.50;;;10.30;67.70;;;;;;5073076;28;20045;-75
2021/12/01 09:20:46;;;;;;;2.60;2.40;;;10.30;67.60;;;;;;5073284;28;20031;-76
2021/12/01 09:23:12;;;;;;;2.67;2.40;;;10.30;67.70;;;;;;5055177;28;20368;-74
2021/12/01 09:25:38;;;;;;;2.50;2.22;;;10.30;67.60;;;;;;5073641;28;20032;-74
2021/12/01 09:28:04;;;;;;;3.17;2.55;;;10.30;67.80;;;;;;5055009;28;20040;-75
2021/12/01 09:30:29;;;;;;;2.67;2.30;;;10.30;67.60;;;;;;5073087;28;20052;-75
2021/12/01 09:32:55;;;;;;;2.60;2.40;;;10.30;67.50;;;;;;5072958;28;20036;-74
2021/12/01 09:35:21;;;;;;;2.80;2.50;;;10.30;67.50;;;;;;5073177;28;20100;-74
2021/12/01 09:37:47;;;;;;;2.40;2.20;;;10.30;67.50;;;;;;5055187;28;20568;-74
2021/12/01 09:40:17;;;;;;;2.85;2.40;;;10.30;67.50;;;;;;5073315;28;20024;-73
2021/12/01 09:42:44;;;;;;;2.58;2.38;;;10.30;67.50;;;;;;5055191;28;20029;-74
2021/12/01 09:45:11;;;;;;;2.40;2.20;;;10.30;67.40;;;;;;5054466;28;20074;-74
2021/12/01 09:47:38;;;;;;;2.80;2.42;;;10.20;67.40;;;;;;5072726;28;20477;-75
2021/12/01 09:50:06;;;;;;;2.90;2.60;;;10.20;67.40;;;;;;5054910;28;20036;-75
2021/12/01 09:52:32;;;;;;;3.53;2.65;;;10.20;67.50;;;;;;5073261;28;20025;-74
2021/12/01 09:54:58;;;;;;;2.60;2.40;;;10.20;68.00;;;;;;5054849;28;20102;-75
2021/12/01 09:57:24;;;;;;;2.50;2.30;;;10.20;67.40;;;;;;5072790;28;20451;-74
2021/12/01 09:59:50;;;;;;;3.15;2.55;;;10.30;67.50;;;;;;5072677;28;20044;-75
2021/12/01 10:02:19;;;;;;;2.50;2.30;;;10.20;67.40;;;;;;5054606;28;20034;-74
2021/12/01 10:04:45;;;;;;;3.10;2.70;;;10.30;67.40;;;;;;5075059;28;20470;-74
2021/12/01 10:07:17;;;;;;;2.50;2.30;;;10.20;67.30;;;;;;5058351;28;20032;-74
2021/12/01 10:09:45;;;;;;;3.42;2.50;;;10.20;67.30;;;;;;5058439;28;20029;-74
2021/12/01 10:12:11;;;;;;;3.03;2.47;;;10.20;67.30;;;;;;5076692;28;20033;-74
2021/12/01 10:14:37;;;;;;;2.53;2.33;;;10.30;67.40;;;;;;5075733;28;20382;-76
2021/12/01 10:17:03;;;;;;;3.05;2.40;;;10.30;67.40;;;;;;5076628;28;20029;-74
2021/12/01 10:19:29;;;;;;;2.72;2.30;;;10.30;67.40;;;;;;5058328;28;20052;-74
2021/12/01 10:21:55;;;;;;;2.50;2.30;;;10.30;67.40;;;;;;5076538;28;20146;-73
2021/12/01 10:24:24;;;;;;;2.40;2.20;;;10.30;67.90;;;;;;5074921;28;20029;-74
2021/12/01 10:26:51;;;;;;;2.97;2.40;;;10.40;67.40;;;;;;5075865;28;20016;-74
2021/12/01 10:29:24;;;;;;;2.58;2.33;;;10.40;67.30;;;;;;5057834;28;20044;-74
2021/12/01 10:31:52;;;;;;;2.75;2.40;;;10.40;67.20;;;;;;5058451;28;20028;-74
2021/12/01 10:34:31;;;;;;;2.70;2.45;;;10.40;67.20;;;;;;5057630;28;20122;-75
2021/12/01 10:37:28;;;;;;;2.60;2.38;;;10.40;67.10;;;;;;5057927;28;20020;-74
2021/12/01 10:40:21;;;;;;;2.53;2.33;;;10.40;66.90;;;;;;5057478;28;20132;-73
2021/12/01 10:43:04;;;;;;;2.30;2.10;;;10.50;66.90;;;;;;5057583;28;20031;-73
2021/12/01 10:45:39;;;;;;;2.90;2.50;;;10.50;67.00;;;;;;5057957;28;20109;-73
2021/12/01 10:48:09;;;;;;;3.20;2.50;;;10.40;67.00;;;;;;5075779;28;20040;-75
2021/12/01 10:50:43;;;;;;;2.70;2.50;;;10.50;67.00;;;;;;5075566;28;20025;-73
2021/12/01 10:53:19;;;;;;;3.50;2.65;;;10.50;66.90;;;;;;5076016;28;20028;-74
2021/12/01 10:55:51;;;;;;;3.20;2.72;;;10.50;66.90;;;;;;5075565;28;20056;-75
2021/12/01 10:58:18;;;;;;;2.90;2.50;;;10.50;66.90;;;;;;5075488;28;20039;-75
2021/12/01 11:00:45;;;;;;;3.67;2.50;;;10.50;66.90;;;;;;5057450;28;20055;-75
2021/12/01 11:03:19;;;;;;;3.00;2.70;;;10.60;66.90;;;;;;5075528;28;20167;-75
2021/12/01 11:05:50;;;;;;;2.78;2.47;;;10.60;66.80;;;;;;5057450;28;20025;-73
2021/12/01 11:08:25;;;;;;;2.60;2.38;;;10.60;66.80;;;;;;5057340;28;20033;-73
2021/12/01 11:11:12;;;;;;;2.40;2.20;;;10.60;66.80;;;;;;5056790;28;20081;-75
2021/12/01 11:13:44;;;;;;;2.53;2.33;;;10.50;66.70;;;;;;5057770;28;20033;-75
2021/12/01 11:16:11;;;;;;;2.42;2.20;;;10.50;66.70;;;;;;5075161;28;20021;-74
2021/12/01 11:18:40;;;;;;;2.50;2.30;;;10.60;66.70;;;;;;5056946;28;20071;-74
2021/12/01 11:21:19;;;;;;;2.88;2.55;;;10.50;66.70;;;;;;5074715;28;20458;-73
2021/12/01 11:23:51;;;;;;;2.60;2.30;;;10.50;66.60;;;;;;5057360;28;20378;-74
2021/12/01 11:26:22;;;;;;;2.83;2.28;;;10.50;66.70;;;;;;5075151;28;20048;-74
2021/12/01 11:28:53;;;;;;;2.97;2.40;;;10.50;66.60;;;;;;5056647;28;20028;-75
2021/12/01 11:31:43;;;;;;;2.78;2.40;;;10.50;67.20;;;;;;5056933;28;20025;-74
2021/12/01 11:34:12;;;;;;;2.50;2.30;;;10.50;66.50;;;;;;5044694;28;20033;-74
2021/12/01 11:36:40;;;;;;;2.92;2.35;;;10.50;66.60;;;;;;5074592;28;20118;-73
2021/12/01 11:39:18;;;;;;;2.40;2.20;;;10.50;66.60;;;;;;5074846;28;20036;-74
2021/12/01 11:41:47;;;;;;;2.40;2.20;;;10.50;66.60;;;;;;5075017;28;20031;-73
2021/12/01 11:44:14;;;;;;;2.70;2.50;;;10.50;66.60;;;;;;5074787;28;20029;-74
2021/12/01 11:46:40;;;;;;;2.40;2.20;;;10.50;66.60;;;;;;5074660;28;20423;-73
2021/12/01 11:49:17;;;;;;;3.08;2.40;;;10.50;66.60;;;;;;5056722;28;20124;-75
2021/12/01 11:51:46;;;;;;;2.70;2.50;;;10.50;66.60;;;;;;5056308;28;20512;-74
2021/12/01 11:54:19;;;;;;;2.63;2.40;;;10.40;66.60;;;;;;5056553;28;20027;-74
2021/12/01 11:56:58;;;;;;;2.58;2.38;;;10.40;66.50;;;;;;5074186;28;20021;-75
2021/12/01 11:59:26;;;;;;;2.58;2.35;;;10.40;66.50;;;;;;5057033;28;20417;-75
2021/12/01 12:02:07;;;;;;;3.70;2.53;;;10.40;66.60;;;;;;5056428;28;20082;-74
2021/12/01 12:04:45;;;;;;;2.58;2.38;;;10.40;66.50;;;;;;5056132;28;20052;-74
2021/12/01 12:07:17;;;;;;;2.45;2.25;;;10.40;66.50;;;;;;5056234;28;20032;-75
2021/12/01 12:10:14;;;;;;;2.33;2.13;;;10.40;66.50;;;;;;5056249;28;20116;-74
2021/12/01 12:12:45;;;;;;;2.50;2.30;;;10.40;66.30;;;;;;5056520;28;20111;-74
2021/12/01 12:15:31;;;;;;;2.72;2.40;;;10.40;66.50;;;;;;5056321;28;20382;-75
2021/12/01 12:17:57;;;;;;;2.50;2.30;;;10.40;66.40;;;;;;5073784;28;20502;-74
2021/12/01 12:20:38;;;;;;;2.72;2.30;;;10.40;66.40;;;;;;5072674;28;20048;-74
2021/12/01 12:23:09;;;;;;;2.50;2.30;;;10.40;66.40;;;;;;5056346;28;20051;-74
2021/12/01 12:25:51;;;;;;;2.78;2.30;;;10.40;66.50;;;;;;5073759;28;20155;-74
2021/12/01 12:28:20;;;;;;;2.47;2.28;;;10.30;66.40;;;;;;5056199;28;20395;-74
2021/12/01 12:30:46;;;;;;;2.60;2.35;;;10.30;66.50;;;;;;5073657;28;20029;-74
2021/12/01 12:33:24;;;;;;;2.60;2.20;;;10.30;66.50;;;;;;5072363;28;20028;-74
2021/12/01 12:35:53;;;;;;;3.17;2.63;;;10.30;66.40;;;;;;5055474;28;20060;-74
2021/12/01 12:38:19;;;;;;;3.17;2.40;;;10.20;66.40;;;;;;5055575;28;20032;-74
2021/12/01 12:40:46;;;;;;;2.53;2.30;;;10.30;66.50;;;;;;5055506;28;20127;-74
2021/12/01 12:43:23;;;;;;;2.42;2.20;;;10.20;66.50;;;;;;5073531;28;20025;-74
2021/12/01 12:46:07;;;;;;;2.67;2.42;;;10.30;66.50;;;;;;5073470;28;20056;-75
2021/12/01 12:48:39;;;;;;;2.30;2.10;;;10.20;66.40;;;;;;5073307;28;20489;-75
2021/12/01 12:51:12;;;;;;;2.50;2.30;;;10.20;66.50;;;;;;5055517;28;20082;-75
2021/12/01 12:54:02;;;;;;;2.63;2.42;;;10.20;66.50;;;;;;5073637;28;20036;-75
2021/12/01 12:56:32;;;;;;;2.63;2.42;;;10.20;66.30;;;;;;5058436;28;20453;-75
2021/12/01 12:59:26;;;;;;;2.55;2.20;;;10.20;66.50;;;;;;5073351;28;20120;-75
2021/12/01 13:02:14;;;;;;;2.60;2.40;;;10.10;66.30;;;;;;5073129;28;20100;-76
2021/12/01 13:04:49;;;;;;;2.50;2.30;;;10.10;66.30;;;;;;5054195;28;20036;-73